createdAt,value
2017-07-20T00:00:58.168Z,3.87
2017-07-20T00:03:25.724Z,4.10
2017-07-20T00:05:53.312Z,3.93
2017-07-20T00:08:20.887Z,4.00
2017-07-20T00:10:48.478Z,4.40
2017-07-20T00:13:16.052Z,4.30
2017-07-20T00:15:43.652Z,5.03
2017-07-20T00:18:11.214Z,5.00
2017-07-20T00:20:38.878Z,4.00
2017-07-20T00:23:06.551Z,4.70
2017-07-20T00:25:34.159Z,4.50
2017-07-20T00:28:01.716Z,3.97
2017-07-20T00:30:29.324Z,4.53
2017-07-20T00:32:56.879Z,4.43
2017-07-20T00:35:24.571Z,5.03
2017-07-20T00:37:52.150Z,4.70
2017-07-20T00:40:19.731Z,4.37
2017-07-20T00:42:47.292Z,5.20
2017-07-20T00:45:14.894Z,3.90
2017-07-20T00:47:42.446Z,3.80
2017-07-20T00:50:10.004Z,3.90
2017-07-20T00:52:37.590Z,4.33
2017-07-20T00:55:05.145Z,4.90
2017-07-20T00:57:32.755Z,4.13
2017-07-20T01:00:00.322Z,4.10
2017-07-20T01:02:27.908Z,3.93
2017-07-20T01:04:55.462Z,3.90
2017-07-20T01:07:23.035Z,4.70
2017-07-20T01:09:50.591Z,3.70
2017-07-20T01:12:18.193Z,3.70
2017-07-20T01:14:45.742Z,4.50
2017-07-20T01:17:13.326Z,4.57
2017-07-20T01:19:40.883Z,3.70
2017-07-20T01:22:08.467Z,3.70
2017-07-20T01:24:36.017Z,4.00
2017-07-20T01:27:03.664Z,4.23
2017-07-20T01:29:31.239Z,3.47
2017-07-20T01:31:58.834Z,3.70
2017-07-20T01:34:26.378Z,3.97
2017-07-20T01:36:53.934Z,4.20
2017-07-20T01:39:21.514Z,4.67
2017-07-20T01:41:49.120Z,3.53
2017-07-20T01:44:16.710Z,4.47
2017-07-20T01:46:44.262Z,3.60
2017-07-20T01:49:11.852Z,3.87
2017-07-20T01:51:39.406Z,4.30
2017-07-20T01:54:07.018Z,3.20
2017-07-20T01:56:34.633Z,4.30
2017-07-20T01:59:02.218Z,4.60
2017-07-20T02:01:29.779Z,4.60
2017-07-20T02:03:57.562Z,4.53
2017-07-20T02:06:25.114Z,3.63
2017-07-20T02:08:52.705Z,4.43
2017-07-20T02:11:20.266Z,3.87
2017-07-20T02:13:47.858Z,3.70
2017-07-20T02:16:15.413Z,4.60
2017-07-20T02:18:42.993Z,4.47
2017-07-20T02:21:10.688Z,3.90
2017-07-20T02:23:38.251Z,4.50
2017-07-20T02:26:05.909Z,3.93
2017-07-20T02:28:33.457Z,4.20
2017-07-20T02:31:01.046Z,4.67
2017-07-20T02:33:28.600Z,3.73
2017-07-20T02:35:56.195Z,4.13
2017-07-20T02:38:23.752Z,4.23
2017-07-20T02:40:51.300Z,4.00
2017-07-20T02:43:18.892Z,4.43
2017-07-20T02:45:46.433Z,4.07
2017-07-20T02:48:13.943Z,4.37
2017-07-20T02:50:41.489Z,4.57
2017-07-20T02:53:09.008Z,5.07
2017-07-20T02:55:36.583Z,3.97
2017-07-20T02:58:04.096Z,5.50
2017-07-20T03:00:31.643Z,4.63
2017-07-20T03:02:59.153Z,3.57
2017-07-20T03:05:26.697Z,4.40
2017-07-20T03:07:54.229Z,4.80
2017-07-20T03:10:21.743Z,4.80
2017-07-20T03:12:49.299Z,5.33
2017-07-20T03:15:16.810Z,4.50
2017-07-20T03:17:44.352Z,3.70
2017-07-20T03:20:11.863Z,4.30
2017-07-20T03:22:46.290Z,4.23
2017-07-20T03:25:13.803Z,3.93
2017-07-20T03:27:41.350Z,4.23
2017-07-20T03:30:08.975Z,4.27
2017-07-20T03:32:36.540Z,4.53
2017-07-20T03:35:04.052Z,3.37
2017-07-20T03:37:31.593Z,4.13
2017-07-20T03:39:59.125Z,4.50
2017-07-20T03:42:26.712Z,4.67
2017-07-20T03:44:54.232Z,4.67
2017-07-20T03:47:21.777Z,4.60
2017-07-20T03:49:49.291Z,4.07
2017-07-20T03:52:16.847Z,4.80
2017-07-20T03:54:44.364Z,3.80
2017-07-20T03:57:11.910Z,4.47
2017-07-20T03:59:39.426Z,4.30
2017-07-20T04:02:06.982Z,5.60
2017-07-20T04:04:34.542Z,4.00
2017-07-20T04:07:02.072Z,4.27
2017-07-20T04:09:29.622Z,5.00
2017-07-20T04:11:57.141Z,4.50
2017-07-20T04:14:24.695Z,3.90
2017-07-20T04:16:52.211Z,4.20
2017-07-20T04:19:19.759Z,4.70
2017-07-20T04:21:47.288Z,4.53
2017-07-20T04:24:14.842Z,4.67
2017-07-20T04:26:42.355Z,4.10
2017-07-20T04:29:09.938Z,4.43
2017-07-20T04:31:37.455Z,4.63
2017-07-20T04:34:05.000Z,4.03
2017-07-20T04:36:32.522Z,4.70
2017-07-20T04:39:00.177Z,4.63
2017-07-20T04:41:27.692Z,5.30
2017-07-20T04:43:55.237Z,4.90
2017-07-20T04:46:22.746Z,4.93
2017-07-20T04:48:50.252Z,5.00
2017-07-20T04:51:17.794Z,4.93
2017-07-20T04:53:45.319Z,5.27
2017-07-20T04:56:12.879Z,4.87
2017-07-20T04:58:40.452Z,4.30
2017-07-20T05:01:07.996Z,4.30
2017-07-20T05:03:35.506Z,4.70
2017-07-20T05:06:03.068Z,4.73
2017-07-20T05:08:30.583Z,4.80
2017-07-20T05:10:58.131Z,4.60
2017-07-20T05:13:25.650Z,5.40
2017-07-20T05:15:53.196Z,4.27
2017-07-20T05:18:20.708Z,4.23
2017-07-20T05:20:48.256Z,5.00
2017-07-20T05:23:15.768Z,3.90
2017-07-20T05:25:43.311Z,4.40
2017-07-20T05:28:10.828Z,3.60
2017-07-20T05:30:38.367Z,3.77
2017-07-20T05:33:05.909Z,4.33
2017-07-20T05:35:33.423Z,4.30
2017-07-20T05:38:00.962Z,3.93
2017-07-20T05:40:28.470Z,3.47
2017-07-20T05:42:56.010Z,3.53
2017-07-20T05:45:23.525Z,3.93
2017-07-20T05:47:51.069Z,4.20
2017-07-20T05:50:18.573Z,4.00
2017-07-20T05:52:46.153Z,4.17
2017-07-20T05:55:13.666Z,4.00
2017-07-20T05:57:41.206Z,3.43
2017-07-20T06:00:08.730Z,3.43
2017-07-20T06:02:36.279Z,4.13
2017-07-20T06:05:03.792Z,4.30
2017-07-20T06:07:31.338Z,3.77
2017-07-20T06:09:58.970Z,3.30
2017-07-20T06:12:26.527Z,4.13
2017-07-20T06:14:54.038Z,4.37
2017-07-20T06:17:21.576Z,3.17
2017-07-20T06:19:49.085Z,3.70
2017-07-20T06:22:16.640Z,4.23
2017-07-20T06:24:44.153Z,3.77
2017-07-20T06:27:11.655Z,3.90
2017-07-20T06:29:39.197Z,3.10
2017-07-20T06:32:06.713Z,3.50
2017-07-20T06:34:34.272Z,3.37
2017-07-20T06:37:01.778Z,3.20
2017-07-20T06:39:29.322Z,3.60
2017-07-20T06:41:56.838Z,4.00
2017-07-20T06:44:24.379Z,3.00
2017-07-20T06:46:51.887Z,3.80
2017-07-20T06:49:19.433Z,3.53
2017-07-20T06:51:46.942Z,3.27
2017-07-20T06:54:14.490Z,3.97
2017-07-20T06:56:42.005Z,3.30
2017-07-20T06:59:09.544Z,3.10
2017-07-20T07:01:37.047Z,3.30
2017-07-20T07:04:04.592Z,3.00
2017-07-20T07:06:32.108Z,4.17
2017-07-20T07:08:59.644Z,3.60
2017-07-20T07:11:27.164Z,3.30
2017-07-20T07:13:54.681Z,2.60
2017-07-20T07:16:22.231Z,3.23
2017-07-20T07:18:49.746Z,2.90
2017-07-20T07:21:17.298Z,3.60
2017-07-20T07:23:44.822Z,3.90
2017-07-20T07:26:12.375Z,3.03
2017-07-20T07:28:39.889Z,3.10
2017-07-20T07:31:07.433Z,2.97
2017-07-20T07:33:34.953Z,3.10
2017-07-20T07:36:02.509Z,3.23
2017-07-20T07:38:30.034Z,3.13
2017-07-20T07:40:57.575Z,2.80
2017-07-20T07:43:25.096Z,2.70
2017-07-20T07:45:52.635Z,3.03
2017-07-20T07:48:20.147Z,2.80
2017-07-20T07:50:47.693Z,2.90
2017-07-20T07:53:15.210Z,2.57
2017-07-20T07:55:42.766Z,3.17
2017-07-20T07:58:10.284Z,3.00
2017-07-20T08:00:37.832Z,2.93
2017-07-20T08:03:05.345Z,2.77
2017-07-20T08:05:32.863Z,3.10
2017-07-20T08:08:00.406Z,2.87
2017-07-20T08:10:27.921Z,3.00
2017-07-20T08:12:55.472Z,4.10
2017-07-20T08:15:22.994Z,2.83
2017-07-20T08:17:50.541Z,2.93
2017-07-20T08:20:18.057Z,2.70
2017-07-20T08:22:45.610Z,3.20
2017-07-20T08:25:13.137Z,2.73
2017-07-20T08:27:40.691Z,2.87
2017-07-20T08:30:08.208Z,2.80
2017-07-20T08:32:35.757Z,2.60
2017-07-20T08:35:03.278Z,2.67
2017-07-20T08:37:30.829Z,2.50
2017-07-20T08:39:58.349Z,2.80
2017-07-20T08:42:25.897Z,2.80
2017-07-20T08:44:53.410Z,3.10
2017-07-20T08:47:20.949Z,2.50
2017-07-20T08:49:48.464Z,2.90
2017-07-20T08:52:16.026Z,2.70
2017-07-20T08:54:43.545Z,3.60
2017-07-20T08:57:11.063Z,3.20
2017-07-20T08:59:38.612Z,3.30
2017-07-20T09:02:06.124Z,2.50
2017-07-20T09:04:33.669Z,2.10
2017-07-20T09:07:01.182Z,3.37
2017-07-20T09:09:28.732Z,2.87
2017-07-20T09:11:56.261Z,3.03
2017-07-20T09:14:23.813Z,3.00
2017-07-20T09:16:51.328Z,2.17
2017-07-20T09:19:19.735Z,2.43
2017-07-20T09:21:47.252Z,2.37
2017-07-20T09:24:14.797Z,2.63
2017-07-20T09:26:42.323Z,2.80
2017-07-20T09:29:09.868Z,2.63
2017-07-20T09:31:37.389Z,2.50
2017-07-20T09:34:04.931Z,2.60
2017-07-20T09:36:32.455Z,2.30
2017-07-20T09:39:00.016Z,2.80
2017-07-20T09:41:27.536Z,3.27
2017-07-20T09:43:55.083Z,2.93
2017-07-20T09:46:22.593Z,2.70
2017-07-20T09:48:50.115Z,2.60
2017-07-20T09:51:17.660Z,2.30
2017-07-20T09:53:45.173Z,2.63
2017-07-20T09:56:12.727Z,2.50
2017-07-20T09:58:40.247Z,2.33
2017-07-20T10:01:07.805Z,2.47
2017-07-20T10:03:35.322Z,2.20
2017-07-20T10:06:02.882Z,2.40
2017-07-20T10:08:30.398Z,2.30
2017-07-20T10:10:57.941Z,2.00
2017-07-20T10:13:25.451Z,2.57
2017-07-20T10:15:53.010Z,2.43
2017-07-20T10:18:20.525Z,2.30
2017-07-20T10:20:48.087Z,2.10
2017-07-20T10:23:15.600Z,2.20
2017-07-20T10:25:43.147Z,2.33
2017-07-20T10:28:10.660Z,2.87
2017-07-20T10:30:38.218Z,2.67
2017-07-20T10:33:05.724Z,2.30
2017-07-20T10:35:33.269Z,2.30
2017-07-20T10:38:00.787Z,2.10
2017-07-20T10:40:28.298Z,2.30
2017-07-20T10:42:55.842Z,2.10
2017-07-20T10:45:23.366Z,2.17
2017-07-20T10:47:50.920Z,2.30
2017-07-20T10:50:18.433Z,2.80
2017-07-20T10:52:45.973Z,2.40
2017-07-20T10:55:13.495Z,2.20
2017-07-20T10:57:41.042Z,2.10
2017-07-20T11:00:08.554Z,2.60
2017-07-20T11:02:36.135Z,2.20
2017-07-20T11:05:03.657Z,1.97
2017-07-20T11:07:31.207Z,1.67
2017-07-20T11:09:58.724Z,2.57
2017-07-20T11:12:26.269Z,1.80
2017-07-20T11:14:53.790Z,2.00
2017-07-20T11:17:21.342Z,1.80
2017-07-20T11:19:48.857Z,1.93
2017-07-20T11:22:16.403Z,1.97
2017-07-20T11:24:43.935Z,2.50
2017-07-20T11:27:11.513Z,2.00
2017-07-20T11:29:39.028Z,2.53
2017-07-20T11:32:06.570Z,1.73
2017-07-20T11:34:34.117Z,1.77
2017-07-20T11:37:01.633Z,2.10
2017-07-20T11:39:29.173Z,2.13
2017-07-20T11:41:56.692Z,1.80
2017-07-20T11:44:24.243Z,2.70
2017-07-20T11:46:51.760Z,1.90
2017-07-20T11:49:19.308Z,2.03
2017-07-20T11:51:46.822Z,2.10
2017-07-20T11:54:14.390Z,1.97
2017-07-20T11:56:41.909Z,2.10
2017-07-20T11:59:09.454Z,2.23
2017-07-20T12:01:36.977Z,2.50
2017-07-20T12:04:04.532Z,2.20
2017-07-20T12:06:32.041Z,2.10
2017-07-20T12:08:59.584Z,2.20
2017-07-20T12:11:27.102Z,2.00
2017-07-20T12:13:54.626Z,2.10
2017-07-20T12:16:22.176Z,1.73
2017-07-20T12:18:49.688Z,1.87
2017-07-20T12:21:17.222Z,2.07
2017-07-20T12:23:44.740Z,2.10
2017-07-20T12:26:12.288Z,2.33
2017-07-20T12:28:39.807Z,2.03
2017-07-20T12:31:07.353Z,2.00
2017-07-20T12:33:34.868Z,2.10
2017-07-20T12:36:02.413Z,2.03
2017-07-20T12:38:29.934Z,2.00
2017-07-20T12:40:57.483Z,1.60
2017-07-20T12:43:25.003Z,2.13
2017-07-20T12:45:52.549Z,2.03
2017-07-20T12:48:20.069Z,2.23
2017-07-20T12:50:47.625Z,2.63
2017-07-20T12:53:15.148Z,2.10
2017-07-20T12:55:42.700Z,2.70
2017-07-20T12:58:10.220Z,1.83
2017-07-20T13:00:37.743Z,2.20
2017-07-20T13:03:05.292Z,2.00
2017-07-20T13:05:32.808Z,1.90
2017-07-20T13:08:00.353Z,2.40
2017-07-20T13:10:27.870Z,1.90
2017-07-20T13:12:55.422Z,1.83
2017-07-20T13:15:22.941Z,1.87
2017-07-20T13:17:50.485Z,1.70
2017-07-20T13:20:18.005Z,2.10
2017-07-20T13:22:45.547Z,2.07
2017-07-20T13:25:13.066Z,2.33
2017-07-20T13:27:40.605Z,2.13
2017-07-20T13:30:08.114Z,1.60
2017-07-20T13:32:35.664Z,2.40
2017-07-20T13:35:03.174Z,2.37
2017-07-20T13:37:30.722Z,2.40
2017-07-20T13:39:58.247Z,1.90
2017-07-20T13:42:25.841Z,2.00
2017-07-20T13:44:53.357Z,1.90
2017-07-20T13:47:20.916Z,1.67
2017-07-20T13:49:48.424Z,1.70
2017-07-20T13:52:15.942Z,2.30
2017-07-20T13:54:43.495Z,2.10
2017-07-20T13:57:11.016Z,2.37
2017-07-20T13:59:38.568Z,2.60
2017-07-20T14:02:06.092Z,1.67
2017-07-20T14:04:33.642Z,2.10
2017-07-20T14:07:01.158Z,2.00
2017-07-20T14:09:28.709Z,1.93
2017-07-20T14:11:56.229Z,1.77
2017-07-20T14:14:23.783Z,1.90
2017-07-20T14:16:51.303Z,1.50
2017-07-20T14:19:18.847Z,1.70
2017-07-20T14:21:46.363Z,1.83
2017-07-20T14:24:13.914Z,1.90
2017-07-20T14:26:41.434Z,1.83
2017-07-20T14:29:08.991Z,2.20
2017-07-20T14:31:36.520Z,1.80
2017-07-20T14:34:04.081Z,1.53
2017-07-20T14:36:31.604Z,1.90
2017-07-20T14:38:59.124Z,2.10
2017-07-20T14:41:26.679Z,1.83
2017-07-20T14:43:54.197Z,1.70
2017-07-20T14:46:21.745Z,2.37
2017-07-20T14:48:49.262Z,2.63
2017-07-20T14:51:16.813Z,2.20
2017-07-20T14:53:44.327Z,1.90
2017-07-20T14:56:11.882Z,1.73
2017-07-20T14:58:39.396Z,1.73
2017-07-20T15:01:06.947Z,2.00
2017-07-20T15:03:34.461Z,1.60
2017-07-20T15:06:02.022Z,1.70
2017-07-20T15:08:29.535Z,1.60
2017-07-20T15:10:57.092Z,1.97
2017-07-20T15:13:24.608Z,1.57
2017-07-20T15:15:52.148Z,2.07
2017-07-20T15:18:19.661Z,1.70
2017-07-20T15:20:47.202Z,1.77
2017-07-20T15:23:14.725Z,2.20
2017-07-20T15:25:42.290Z,1.80
2017-07-20T15:28:09.804Z,1.70
2017-07-20T15:30:37.320Z,1.90
2017-07-20T15:33:04.871Z,1.87
2017-07-20T15:35:32.390Z,1.63
2017-07-20T15:37:59.939Z,1.90
2017-07-20T15:40:27.455Z,1.80
2017-07-20T15:42:54.997Z,1.80
2017-07-20T15:45:22.512Z,2.10
2017-07-20T15:47:50.065Z,1.90
2017-07-20T15:50:17.586Z,1.80
2017-07-20T15:52:45.147Z,1.70
2017-07-20T15:55:12.663Z,1.37
2017-07-20T15:57:40.210Z,1.53
2017-07-20T16:00:07.729Z,1.50
2017-07-20T16:02:35.276Z,1.90
2017-07-20T16:05:02.791Z,1.87
2017-07-20T16:07:30.337Z,1.40
2017-07-20T16:09:57.855Z,1.60
2017-07-20T16:12:25.420Z,1.70
2017-07-20T16:14:52.943Z,1.77
2017-07-20T16:17:20.468Z,1.67
2017-07-20T16:19:48.014Z,1.77
2017-07-20T16:22:15.541Z,1.50
2017-07-20T16:24:43.086Z,1.40
2017-07-20T16:27:10.601Z,1.90
2017-07-20T16:29:38.155Z,1.67
2017-07-20T16:32:05.674Z,1.43
2017-07-20T16:34:33.215Z,1.50
2017-07-20T16:37:00.729Z,1.43
2017-07-20T16:39:28.275Z,1.43
2017-07-20T16:41:55.792Z,1.67
2017-07-20T16:44:23.342Z,1.33
2017-07-20T16:46:50.853Z,1.80
2017-07-20T16:49:18.403Z,1.43
2017-07-20T16:51:45.918Z,2.20
2017-07-20T16:54:13.459Z,1.27
2017-07-20T16:56:40.973Z,1.30
2017-07-20T16:59:08.521Z,1.50
2017-07-20T17:01:36.039Z,1.73
2017-07-20T17:04:03.617Z,1.57
2017-07-20T17:06:31.124Z,1.90
2017-07-20T17:08:58.635Z,1.83
2017-07-20T17:11:26.178Z,1.30
2017-07-20T17:13:53.702Z,1.83
2017-07-20T17:16:21.251Z,1.73
2017-07-20T17:18:48.773Z,1.93
2017-07-20T17:21:16.319Z,1.53
2017-07-20T17:23:43.839Z,1.70
2017-07-20T17:26:11.376Z,1.70
2017-07-20T17:28:38.901Z,1.50
2017-07-20T17:31:06.452Z,1.40
2017-07-20T17:33:33.968Z,1.60
2017-07-20T17:36:01.516Z,1.90
2017-07-20T17:38:29.032Z,1.60
2017-07-20T17:40:56.597Z,1.50
2017-07-20T17:43:24.115Z,1.60
2017-07-20T17:45:51.666Z,2.03
2017-07-20T17:48:19.179Z,1.77
2017-07-20T17:50:46.747Z,1.90
2017-07-20T17:53:14.262Z,1.30
2017-07-20T17:55:41.784Z,2.70
2017-07-20T17:58:09.340Z,1.83
2017-07-20T18:00:36.873Z,1.77
2017-07-20T18:03:04.419Z,1.60
2017-07-20T18:05:31.929Z,1.70
2017-07-20T18:07:59.482Z,1.93
2017-07-20T18:10:26.998Z,1.67
2017-07-20T18:12:54.549Z,1.80
2017-07-20T18:15:22.071Z,1.70
2017-07-20T18:17:49.633Z,1.93
2017-07-20T18:20:17.154Z,1.80
2017-07-20T18:22:44.708Z,2.27
2017-07-20T18:25:12.228Z,1.73
2017-07-20T18:27:39.783Z,1.87
2017-07-20T18:30:07.298Z,1.80
2017-07-20T18:32:34.875Z,2.43
2017-07-20T18:35:02.400Z,2.10
2017-07-20T18:37:29.917Z,2.50
2017-07-20T18:39:57.465Z,2.63
2017-07-20T18:42:24.979Z,2.90
2017-07-20T18:44:52.521Z,2.77
2017-07-20T18:47:20.042Z,2.67
2017-07-20T18:49:47.590Z,2.90
2017-07-20T18:52:15.110Z,3.10
2017-07-20T18:54:42.656Z,3.20
2017-07-20T18:57:10.175Z,2.90
2017-07-20T18:59:37.725Z,2.50
2017-07-20T19:02:05.237Z,3.40
2017-07-20T19:04:32.780Z,2.53
2017-07-20T19:07:00.296Z,2.87
2017-07-20T19:09:27.850Z,1.90
2017-07-20T19:11:55.365Z,1.93
2017-07-20T19:14:22.920Z,2.20
2017-07-20T19:16:50.440Z,2.33
2017-07-20T19:19:18.008Z,2.20
2017-07-20T19:21:45.517Z,2.23
2017-07-20T19:24:13.038Z,2.17
2017-07-20T19:26:40.575Z,2.47
2017-07-20T19:29:08.093Z,2.20
2017-07-20T19:31:35.648Z,2.50
2017-07-20T19:34:03.169Z,3.70
2017-07-20T19:36:30.748Z,2.70
2017-07-20T19:38:58.293Z,2.47
2017-07-20T19:41:25.842Z,2.50
2017-07-20T19:43:53.358Z,2.57
2017-07-20T19:46:20.906Z,2.70
2017-07-20T19:48:48.416Z,2.67
2017-07-20T19:51:15.969Z,2.13
2017-07-20T19:53:43.486Z,3.13
2017-07-20T19:56:11.046Z,2.60
2017-07-20T19:58:38.556Z,3.00
2017-07-20T20:01:06.104Z,2.50
2017-07-20T20:03:33.617Z,2.30
2017-07-20T20:06:01.181Z,2.80
2017-07-20T20:08:28.694Z,3.33
2017-07-20T20:10:56.212Z,2.93
2017-07-20T20:13:23.763Z,3.60
2017-07-20T20:15:51.273Z,3.90
2017-07-20T20:18:18.828Z,4.13
2017-07-20T20:20:46.355Z,4.43
2017-07-20T20:23:13.911Z,3.43
2017-07-20T20:25:41.429Z,3.30
2017-07-20T20:28:08.975Z,3.47
2017-07-20T20:30:36.490Z,4.37
2017-07-20T20:33:04.282Z,3.23
2017-07-20T20:35:32.449Z,3.40
2017-07-20T20:38:00.055Z,3.60
2017-07-20T20:40:28.001Z,3.10
2017-07-20T20:42:56.843Z,3.20
2017-07-20T20:45:24.430Z,3.10
2017-07-20T20:47:51.982Z,3.93
2017-07-20T20:50:19.764Z,3.80
2017-07-20T20:52:47.347Z,4.83
2017-07-20T20:55:14.864Z,3.77
2017-07-20T20:57:42.386Z,3.20
2017-07-20T21:00:09.937Z,2.73
2017-07-20T21:02:37.446Z,3.77
2017-07-20T21:05:05.003Z,3.47
2017-07-20T21:07:32.799Z,3.50
2017-07-20T21:10:00.561Z,3.17
2017-07-20T21:12:28.445Z,3.03
2017-07-20T21:14:56.503Z,3.67
2017-07-20T21:17:24.163Z,3.40
2017-07-20T21:19:52.439Z,4.10
2017-07-20T21:22:20.181Z,2.60
2017-07-20T21:24:47.772Z,3.03
2017-07-20T21:27:15.498Z,3.80
2017-07-20T21:29:43.186Z,3.10
2017-07-20T21:32:11.028Z,2.77
2017-07-20T21:34:38.591Z,4.00
2017-07-20T21:37:06.114Z,3.23
2017-07-20T21:39:33.672Z,3.10
2017-07-20T21:42:01.198Z,3.00
2017-07-20T21:44:28.716Z,2.93
2017-07-20T21:46:56.268Z,3.40
2017-07-20T21:49:23.790Z,2.80
2017-07-20T21:51:51.335Z,3.10
2017-07-20T21:54:18.859Z,3.33
2017-07-20T21:56:46.414Z,4.10
2017-07-20T21:59:13.935Z,3.20
2017-07-20T22:01:41.488Z,3.17
2017-07-20T22:04:09.007Z,3.33
2017-07-20T22:06:36.553Z,2.87
2017-07-20T22:09:04.076Z,3.10
2017-07-20T22:11:31.631Z,3.60
2017-07-20T22:13:59.151Z,3.33
2017-07-20T22:16:26.702Z,3.10
2017-07-20T22:18:54.214Z,3.20
2017-07-20T22:21:21.798Z,3.27
2017-07-20T22:23:49.321Z,2.93
2017-07-20T22:26:16.911Z,3.20
2017-07-20T22:28:44.458Z,2.93
2017-07-20T22:31:12.011Z,3.70
2017-07-20T22:33:39.565Z,3.03
2017-07-20T22:36:07.081Z,3.30
2017-07-20T22:38:34.791Z,3.10
2017-07-20T22:41:02.311Z,3.53
2017-07-20T22:43:29.858Z,3.27
2017-07-20T22:45:57.371Z,3.43
2017-07-20T22:48:24.922Z,3.23
2017-07-20T22:50:52.437Z,3.73
2017-07-20T22:53:19.985Z,3.60
2017-07-20T22:55:47.507Z,4.13
2017-07-20T22:58:15.085Z,3.10
2017-07-20T23:00:42.599Z,3.27
2017-07-20T23:03:10.149Z,3.33
2017-07-20T23:05:37.662Z,3.17
2017-07-20T23:08:05.209Z,2.77
2017-07-20T23:10:32.783Z,3.80
2017-07-20T23:13:00.353Z,3.43
2017-07-20T23:15:27.889Z,4.17
2017-07-20T23:17:55.409Z,3.60
2017-07-20T23:20:22.963Z,3.07
2017-07-20T23:22:50.580Z,3.33
2017-07-20T23:25:18.124Z,2.97
2017-07-20T23:27:45.656Z,3.30
2017-07-20T23:30:13.215Z,3.20
2017-07-20T23:32:40.739Z,3.37
2017-07-20T23:35:08.388Z,3.10
2017-07-20T23:37:35.959Z,3.90
2017-07-20T23:40:03.503Z,3.40
2017-07-20T23:42:31.030Z,3.60
2017-07-20T23:44:58.599Z,4.00
2017-07-20T23:47:26.182Z,4.37
2017-07-20T23:49:53.698Z,4.90
2017-07-20T23:52:21.276Z,5.07
2017-07-20T23:54:48.792Z,4.73
2017-07-20T23:57:16.314Z,4.73
2017-07-20T23:59:43.925Z,4.30
